Time;durP1;ratioP1;P1;durP2;ratioP2;P2;SDS_P1;SDS_P2;PMS_P1;PMS_P2;Temp;Humidity;BMP_temperature;BMP_pressure;BME280_temperature;BME280_humidity;BME280_pressure;Samples;Min_cycle;Max_cycle;Signal;HPM_P1;HPM_P2
2022/05/21 00:00:52;;;;;;;;;;;27.70;39.90;;;;;;5098972;28;1640;-40
2022/05/21 00:03:18;;;;;;;;;;;27.70;40.00;;;;;;5098400;28;1000;-42
2022/05/21 00:05:46;;;;;;;;;;;27.70;40.00;;;;;;5097965;28;949;-38
2022/05/21 00:08:13;;;;;;;;;;;27.70;40.10;;;;;;5098137;28;976;-41
2022/05/21 00:10:40;;;;;;;;;;;27.70;40.10;;;;;;5098931;28;1909;-42
2022/05/21 00:13:08;;;;;;;;;;;27.70;40.00;;;;;;5098061;28;1027;-38
2022/05/21 00:15:36;;;;;;;;;;;27.70;40.00;;;;;;5098165;28;1243;-41
2022/05/21 00:18:06;;;;;;;;;;;27.70;40.00;;;;;;5098521;28;988;-42
2022/05/21 00:20:48;;;;;;;;;;;27.70;40.00;;;;;;5097800;28;1002;-40
2022/05/21 00:23:16;;;;;;;;;;;27.70;40.10;;;;;;5098563;28;1012;-40
2022/05/21 00:25:44;;;;;;;;;;;27.80;40.10;;;;;;5098593;28;1003;-42
2022/05/21 00:28:11;;;;;;;;;;;27.70;40.20;;;;;;5098267;28;1051;-42
2022/05/21 00:30:39;;;;;;;;;;;27.80;40.20;;;;;;5098708;28;1883;-42
2022/05/21 00:33:06;;;;;;;;;;;27.80;40.20;;;;;;5097219;28;965;-35
2022/05/21 00:35:33;;;;;;;;;;;27.80;40.20;;;;;;5098114;28;991;-33
2022/05/21 00:38:00;;;;;;;;;;;27.80;40.20;;;;;;5096505;28;992;-33
2022/05/21 00:40:27;;;;;;;;;;;27.80;40.20;;;;;;5096394;28;899;-33
2022/05/21 00:42:54;;;;;;;;;;;27.80;40.20;;;;;;5097181;28;1000;-34
2022/05/21 00:45:21;;;;;;;;;;;27.80;40.20;;;;;;5097529;28;929;-36
2022/05/21 00:47:49;;;;;;;;;;;27.80;40.20;;;;;;5097415;28;1020;-35
2022/05/21 00:50:19;;;;;;;;;;;27.80;40.20;;;;;;5097293;28;1894;-35
2022/05/21 00:52:46;;;;;;;;;;;27.80;40.20;;;;;;5097489;28;1025;-33
2022/05/21 00:55:14;;;;;;;;;;;27.80;40.10;;;;;;5097652;28;984;-35
2022/05/21 00:57:43;;;;;;;;;;;27.90;40.10;;;;;;5097185;28;934;-35
2022/05/21 01:00:10;;;;;;;;;;;27.90;40.30;;;;;;5096780;28;1363;-35
2022/05/21 01:02:41;;;;;;;;;;;27.80;40.20;;;;;;5098367;28;864;-35
2022/05/21 01:05:10;;;;;;;;;;;27.90;40.30;;;;;;5098162;28;1024;-35
2022/05/21 01:07:37;;;;;;;;;;;27.90;40.30;;;;;;5097838;28;937;-35
2022/05/21 01:10:04;;;;;;;;;;;27.90;41.40;;;;;;5097594;28;991;-33
2022/05/21 01:12:36;;;;;;;;;;;27.90;40.20;;;;;;5097671;28;1968;-33
2022/05/21 01:15:05;;;;;;;;;;;27.90;40.30;;;;;;5098425;28;915;-33
2022/05/21 01:17:31;;;;;;;;;;;27.90;40.40;;;;;;5098168;28;934;-34
2022/05/21 01:20:00;;;;;;;;;;;27.90;40.30;;;;;;5098203;28;1028;-33
2022/05/21 01:22:30;;;;;;;;;;;27.90;40.20;;;;;;5097881;28;1631;-35
2022/05/21 01:24:56;;;;;;;;;;;27.90;40.10;;;;;;5098237;28;1016;-34
2022/05/21 01:27:25;;;;;;;;;;;27.90;40.10;;;;;;5100740;28;1047;-33
2022/05/21 01:29:53;;;;;;;;;;;28.00;40.10;;;;;;5102137;28;1004;-33
2022/05/21 01:32:20;;;;;;;;;;;28.00;40.00;;;;;;5101349;28;1898;-33
2022/05/21 01:34:47;;;;;;;;;;;28.00;40.10;;;;;;5100700;28;993;-33
2022/05/21 01:37:14;;;;;;;;;;;27.90;40.10;;;;;;5101050;28;1843;-38
2022/05/21 01:39:42;;;;;;;;;;;27.90;40.10;;;;;;5101331;28;1031;-42
2022/05/21 01:42:09;;;;;;;;;;;27.90;40.10;;;;;;5101006;28;1027;-40
2022/05/21 01:44:38;;;;;;;;;;;28.00;40.10;;;;;;5100964;28;1027;-42
2022/05/21 01:47:05;;;;;;;;;;;28.00;40.10;;;;;;5101007;28;932;-41
2022/05/21 01:49:32;;;;;;;;;;;28.00;40.20;;;;;;5100799;28;1186;-39
2022/05/21 01:51:59;;;;;;;;;;;28.00;40.20;;;;;;5100953;28;1918;-40
2022/05/21 01:54:26;;;;;;;;;;;28.00;40.20;;;;;;5100970;28;1916;-42
2022/05/21 01:56:55;;;;;;;;;;;27.90;40.10;;;;;;5100286;28;885;-39
2022/05/21 01:59:22;;;;;;;;;;;28.00;40.20;;;;;;5099830;28;1151;-42
2022/05/21 02:01:49;;;;;;;;;;;27.90;40.20;;;;;;5100219;28;1379;-40
2022/05/21 02:04:17;;;;;;;;;;;28.00;40.20;;;;;;5100479;28;1515;-34
2022/05/21 02:06:44;;;;;;;;;;;28.00;40.20;;;;;;5100629;28;1062;-34
2022/05/21 02:09:11;;;;;;;;;;;28.00;40.20;;;;;;5100436;28;1608;-33
2022/05/21 02:11:39;;;;;;;;;;;28.00;40.20;;;;;;5100529;28;1902;-34
2022/05/21 02:14:09;;;;;;;;;;;28.00;40.30;;;;;;5100956;28;956;-33
2022/05/21 02:16:36;;;;;;;;;;;28.00;40.30;;;;;;5100379;28;953;-33
2022/05/21 02:19:04;;;;;;;;;;;28.00;40.30;;;;;;5100393;28;880;-33
2022/05/21 02:21:31;;;;;;;;;;;28.00;40.30;;;;;;5100685;28;912;-33
2022/05/21 02:23:58;;;;;;;;;;;28.00;40.20;;;;;;5100583;28;969;-33
2022/05/21 02:26:28;;;;;;;;;;;28.00;40.20;;;;;;5101631;28;989;-33
2022/05/21 02:28:55;;;;;;;;;;;28.00;40.30;;;;;;5100428;28;979;-38
2022/05/21 02:31:24;;;;;;;;;;;28.00;40.30;;;;;;5100742;28;1979;-42
2022/05/21 02:33:50;;;;;;;;;;;28.00;40.30;;;;;;5100788;28;1012;-41
2022/05/21 02:39:28;;;;;;;;;;;28.00;40.30;;;;;;5100844;28;1001;-40
2022/05/21 02:41:56;;;;;;;;;;;28.00;40.30;;;;;;5100792;28;949;-41
2022/05/21 02:44:23;;;;;;;;;;;27.90;40.30;;;;;;5100036;28;1020;-39
2022/05/21 02:46:51;;;;;;;;;;;27.90;40.30;;;;;;5099928;28;992;-41
2022/05/21 02:49:17;;;;;;;;;;;27.90;40.30;;;;;;5099438;28;976;-39
2022/05/21 02:51:44;;;;;;;;;;;27.90;40.30;;;;;;5100059;28;1896;-41
2022/05/21 02:54:14;;;;;;;;;;;27.90;40.30;;;;;;5100051;28;1012;-39
2022/05/21 02:56:43;;;;;;;;;;;27.90;40.40;;;;;;5100036;28;941;-39
2022/05/21 02:59:10;;;;;;;;;;;27.90;40.30;;;;;;5099613;28;1280;-41
2022/05/21 03:01:36;;;;;;;;;;;28.00;40.30;;;;;;5099661;28;1023;-42
2022/05/21 03:04:07;;;;;;;;;;;27.90;40.30;;;;;;5099720;28;1034;-39
2022/05/21 03:06:34;;;;;;;;;;;27.90;40.30;;;;;;5100224;28;1077;-38
2022/05/21 03:11:45;;;;;;;;;;;27.90;40.30;;;;;;5099271;28;1902;-40
2022/05/21 03:14:12;;;;;;;;;;;28.00;40.30;;;;;;5099143;28;1062;-39
2022/05/21 03:16:38;;;;;;;;;;;28.00;40.40;;;;;;5099550;28;972;-39
2022/05/21 03:19:08;;;;;;;;;;;27.90;40.30;;;;;;5099461;28;1696;-40
2022/05/21 03:21:34;;;;;;;;;;;27.90;40.30;;;;;;5099589;28;1020;-42
2022/05/21 03:24:02;;;;;;;;;;;27.90;40.30;;;;;;5100042;28;941;-40
2022/05/21 03:26:29;;;;;;;;;;;28.00;40.30;;;;;;5100102;28;932;-40
2022/05/21 03:28:56;;;;;;;;;;;28.00;40.30;;;;;;5099854;28;992;-38
2022/05/21 03:31:23;;;;;;;;;;;27.90;40.30;;;;;;5100096;28;1897;-39
2022/05/21 03:33:49;;;;;;;;;;;28.00;40.40;;;;;;5099873;28;965;-39
2022/05/21 03:36:18;;;;;;;;;;;27.90;40.40;;;;;;5100434;28;1020;-40
2022/05/21 03:38:44;;;;;;;;;;;27.90;40.50;;;;;;5099806;28;979;-41
2022/05/21 03:41:11;;;;;;;;;;;28.00;40.40;;;;;;5099700;28;1113;-41
2022/05/21 03:43:38;;;;;;;;;;;28.00;40.40;;;;;;5098624;28;945;-43
2022/05/21 03:46:05;;;;;;;;;;;27.90;40.40;;;;;;5099083;28;1491;-43
2022/05/21 03:48:32;;;;;;;;;;;27.90;40.40;;;;;;5098297;28;949;-35
2022/05/21 03:50:59;;;;;;;;;;;27.90;40.40;;;;;;5098446;28;1901;-36
2022/05/21 03:53:28;;;;;;;;;;;27.90;40.40;;;;;;5099088;28;925;-42
2022/05/21 03:55:55;;;;;;;;;;;27.90;40.50;;;;;;5098191;28;1040;-43
2022/05/21 03:58:22;;;;;;;;;;;27.90;40.50;;;;;;5098782;28;1088;-43
2022/05/21 04:00:50;;;;;;;;;;;27.90;40.40;;;;;;5098382;28;999;-35
2022/05/21 04:03:17;;;;;;;;;;;27.90;40.30;;;;;;5097987;28;1120;-35
2022/05/21 04:05:44;;;;;;;;;;;27.90;40.40;;;;;;5097337;28;1298;-35
2022/05/21 04:08:11;;;;;;;;;;;27.90;40.40;;;;;;5097199;28;955;-35
2022/05/21 04:10:39;;;;;;;;;;;27.90;40.50;;;;;;5097609;28;1738;-35
2022/05/21 04:13:06;;;;;;;;;;;27.90;40.50;;;;;;5098027;28;1900;-35
2022/05/21 04:15:33;;;;;;;;;;;27.90;40.50;;;;;;5097640;28;997;-35
2022/05/21 04:18:00;;;;;;;;;;;27.90;40.50;;;;;;5097030;28;1000;-35
2022/05/21 04:20:28;;;;;;;;;;;27.90;40.50;;;;;;5097293;28;1015;-35
2022/05/21 04:22:55;;;;;;;;;;;27.90;40.40;;;;;;5097718;28;865;-34
2022/05/21 04:25:22;;;;;;;;;;;27.90;40.40;;;;;;5096914;28;884;-35
2022/05/21 04:27:51;;;;;;;;;;;27.90;40.40;;;;;;5096689;28;1008;-35
2022/05/21 04:30:19;;;;;;;;;;;27.90;40.40;;;;;;5096755;28;1016;-35
2022/05/21 04:32:46;;;;;;;;;;;27.90;40.40;;;;;;5096506;28;1914;-34
2022/05/21 04:35:14;;;;;;;;;;;27.90;40.30;;;;;;5096519;28;1046;-36
2022/05/21 04:37:40;;;;;;;;;;;27.90;40.30;;;;;;5096523;28;2188;-35
2022/05/21 04:40:09;;;;;;;;;;;27.90;40.30;;;;;;5095919;28;1990;-35
2022/05/21 04:42:36;;;;;;;;;;;27.90;40.30;;;;;;5096527;28;740;-36
2022/05/21 04:45:05;;;;;;;;;;;27.90;40.30;;;;;;5095612;28;1483;-35
2022/05/21 04:47:32;;;;;;;;;;;27.90;40.30;;;;;;5095518;28;886;-34
2022/05/21 04:49:59;;;;;;;;;;;27.90;40.30;;;;;;5096824;28;964;-34
2022/05/21 04:52:26;;;;;;;;;;;27.90;40.30;;;;;;5096346;28;1982;-36
2022/05/21 04:54:53;;;;;;;;;;;27.90;40.40;;;;;;5096068;28;1800;-34
2022/05/21 04:57:20;;;;;;;;;;;27.90;40.30;;;;;;5096126;28;1052;-34
2022/05/21 04:59:47;;;;;;;;;;;27.90;40.40;;;;;;5095093;28;1252;-35
2022/05/21 05:02:15;;;;;;;;;;;27.90;40.40;;;;;;5096711;28;988;-34
2022/05/21 05:04:42;;;;;;;;;;;27.90;40.50;;;;;;5097816;28;1000;-34
2022/05/21 05:07:09;;;;;;;;;;;27.90;40.50;;;;;;5097814;28;1472;-34
2022/05/21 05:09:39;;;;;;;;;;;27.80;40.40;;;;;;5097819;28;980;-35
2022/05/21 05:12:06;;;;;;;;;;;27.90;40.50;;;;;;5098555;28;1879;-35
2022/05/21 05:14:34;;;;;;;;;;;27.90;40.50;;;;;;5098229;28;1036;-34
2022/05/21 05:17:00;;;;;;;;;;;27.90;40.50;;;;;;5097834;28;881;-35
2022/05/21 05:19:30;;;;;;;;;;;27.90;40.30;;;;;;5098737;28;1443;-34
2022/05/21 05:21:57;;;;;;;;;;;27.90;40.30;;;;;;5099179;28;865;-34
2022/05/21 05:24:24;;;;;;;;;;;27.90;40.40;;;;;;5097921;28;1951;-35
2022/05/21 05:26:51;;;;;;;;;;;27.80;40.40;;;;;;5098159;28;889;-35
2022/05/21 05:29:18;;;;;;;;;;;27.90;40.50;;;;;;5099057;28;1041;-35
2022/05/21 05:31:45;;;;;;;;;;;27.80;40.40;;;;;;5097661;28;1988;-34
2022/05/21 05:34:12;;;;;;;;;;;27.80;40.40;;;;;;5098816;28;1050;-34
2022/05/21 05:36:40;;;;;;;;;;;27.80;40.40;;;;;;5097288;28;954;-35
2022/05/21 05:39:07;;;;;;;;;;;27.80;40.30;;;;;;5097403;28;1007;-34
2022/05/21 05:41:37;;;;;;;;;;;27.80;40.40;;;;;;5097599;28;956;-34
2022/05/21 05:44:04;;;;;;;;;;;27.80;40.40;;;;;;5097096;28;959;-35
2022/05/21 05:46:31;;;;;;;;;;;27.80;40.40;;;;;;5097805;28;962;-35
2022/05/21 05:48:58;;;;;;;;;;;27.80;40.50;;;;;;5097352;28;1027;-35
2022/05/21 05:51:26;;;;;;;;;;;27.80;40.40;;;;;;5097029;28;1020;-35
2022/05/21 05:53:55;;;;;;;;;;;27.80;40.50;;;;;;5096477;28;1985;-35
2022/05/21 05:56:22;;;;;;;;;;;27.80;40.40;;;;;;5097111;28;1008;-35
2022/05/21 06:01:33;;;;;;;;;;;27.80;40.60;;;;;;5097666;28;635;-35
2022/05/21 06:04:00;;;;;;;;;;;27.80;40.60;;;;;;5097885;28;933;-35
2022/05/21 06:06:28;;;;;;;;;;;27.80;40.70;;;;;;5098148;28;908;-35
2022/05/21 06:08:56;;;;;;;;;;;27.80;41.80;;;;;;5097635;28;1048;-35
2022/05/21 06:11:24;;;;;;;;;;;27.80;40.70;;;;;;5098330;28;1008;-34
2022/05/21 06:13:50;;;;;;;;;;;27.80;40.60;;;;;;5097336;28;1898;-34
2022/05/21 06:16:18;;;;;;;;;;;27.80;40.60;;;;;;5097783;28;1074;-36
2022/05/21 06:18:45;;;;;;;;;;;27.70;40.60;;;;;;5098070;28;2042;-34
2022/05/21 06:21:12;;;;;;;;;;;27.80;40.60;;;;;;5098896;28;1036;-35
2022/05/21 06:23:39;;;;;;;;;;;27.80;40.60;;;;;;5097389;28;1031;-35
2022/05/21 06:26:09;;;;;;;;;;;27.80;40.60;;;;;;5097721;28;1413;-35
2022/05/21 06:28:37;;;;;;;;;;;27.80;40.70;;;;;;5097165;28;1000;-39
2022/05/21 06:31:04;;;;;;;;;;;27.80;40.70;;;;;;5097576;28;1102;-35
2022/05/21 06:33:32;;;;;;;;;;;27.70;40.70;;;;;;5096999;28;1906;-34
2022/05/21 06:36:03;;;;;;;;;;;27.70;40.70;;;;;;5096140;28;1035;-35
2022/05/21 06:38:30;;;;;;;;;;;27.70;40.70;;;;;;5096141;28;992;-34
2022/05/21 06:40:57;;;;;;;;;;;27.70;40.70;;;;;;5096001;28;2060;-34
2022/05/21 06:43:26;;;;;;;;;;;27.70;40.80;;;;;;5096489;28;1023;-34
2022/05/21 06:45:53;;;;;;;;;;;27.70;40.70;;;;;;5096296;28;953;-34
2022/05/21 06:48:21;;;;;;;;;;;27.70;40.80;;;;;;5097018;28;1451;-35
2022/05/21 06:50:48;;;;;;;;;;;27.70;40.80;;;;;;5097805;28;988;-34
2022/05/21 06:53:15;;;;;;;;;;;27.70;40.80;;;;;;5096074;28;1906;-35
2022/05/21 06:55:42;;;;;;;;;;;27.70;40.90;;;;;;5096341;28;972;-35
2022/05/21 06:58:10;;;;;;;;;;;27.70;40.80;;;;;;5096540;28;1020;-35
2022/05/21 07:00:39;;;;;;;;;;;27.70;40.90;;;;;;5096606;28;1213;-35
2022/05/21 07:03:07;;;;;;;;;;;27.70;40.80;;;;;;5095634;28;1427;-35
2022/05/21 07:08:20;;;;;;;;;;;27.70;40.80;;;;;;5096045;28;655;-35
2022/05/21 07:10:48;;;;;;;;;;;27.70;40.70;;;;;;5095726;28;968;-35
2022/05/21 07:13:15;;;;;;;;;;;27.70;40.80;;;;;;5095678;28;2032;-34
2022/05/21 07:15:43;;;;;;;;;;;27.70;40.90;;;;;;5093676;28;1526;-34
2022/05/21 07:18:12;;;;;;;;;;;27.70;41.90;;;;;;5096578;28;941;-34
2022/05/21 07:20:39;;;;;;;;;;;27.70;40.80;;;;;;5095447;28;1329;-35
2022/05/21 07:23:06;;;;;;;;;;;27.70;40.90;;;;;;5096143;28;959;-34
2022/05/21 07:25:34;;;;;;;;;;;27.70;40.90;;;;;;5095188;28;948;-35
2022/05/21 07:28:01;;;;;;;;;;;27.70;40.90;;;;;;5095673;28;856;-34
2022/05/21 07:30:29;;;;;;;;;;;27.70;40.80;;;;;;5095684;28;945;-36
2022/05/21 07:32:57;;;;;;;;;;;27.70;40.90;;;;;;5092959;28;1985;-35
2022/05/21 07:35:25;;;;;;;;;;;27.70;40.90;;;;;;5095034;28;933;-35
2022/05/21 07:37:53;;;;;;;;;;;27.70;40.80;;;;;;5095461;28;1666;-34
2022/05/21 07:40:23;;;;;;;;;;;27.70;40.90;;;;;;5096030;28;1049;-35
2022/05/21 07:42:50;;;;;;;;;;;27.70;40.80;;;;;;5097523;28;1012;-34
2022/05/21 07:48:32;;;;;;;;;;;27.70;40.80;;;;;;5049093;28;1263;-35
2022/05/21 07:51:00;;;;;;;;;;;27.70;40.70;;;;;;5114704;28;1729;-34
2022/05/21 07:53:28;;;;;;;;;;;27.70;40.90;;;;;;5117129;28;1894;-35
2022/05/21 07:55:56;;;;;;;;;;;27.70;40.50;;;;;;5116836;28;888;-34
2022/05/21 07:58:26;;;;;;;;;;;27.80;40.50;;;;;;5115044;28;1634;-36
2022/05/21 08:00:53;;;;;;;;;;;27.80;40.40;;;;;;5116041;28;1007;-35
2022/05/21 08:03:20;;;;;;;;;;;27.80;40.00;;;;;;5115226;28;1016;-35
2022/05/21 08:05:49;;;;;;;;;;;27.80;40.20;;;;;;5115320;28;1217;-35
2022/05/21 08:08:16;;;;;;;;;;;27.80;40.00;;;;;;5115231;28;1020;-35
2022/05/21 08:10:44;;;;;;;;;;;27.80;39.90;;;;;;5115485;28;1487;-35
2022/05/21 08:13:16;;;;;;;;;;;27.80;40.20;;;;;;5114677;27;1918;-43
2022/05/21 08:15:43;;;;;;;;;;;27.80;39.90;;;;;;5115242;28;923;-35
2022/05/21 08:18:10;;;;;;;;;;;27.70;39.90;;;;;;5116233;28;2130;-34
2022/05/21 08:20:38;;;;;;;;;;;27.80;40.00;;;;;;5115975;28;1044;-35
2022/05/21 08:28:37;;;;;;;;;;;27.70;39.90;;;;;;5114648;28;933;-34
2022/05/21 08:31:05;;;;;;;;;;;27.70;40.00;;;;;;5114250;28;996;-35
2022/05/21 08:33:33;;;;;;;;;;;27.70;40.30;;;;;;5114114;28;1914;-34
2022/05/21 08:36:00;;;;;;;;;;;27.70;39.90;;;;;;5115174;28;1906;-34
2022/05/21 08:38:28;;;;;;;;;;;27.70;40.20;;;;;;5117195;28;949;-35
2022/05/21 08:40:58;;;;;;;;;;;27.80;40.00;;;;;;5114912;28;956;-34
2022/05/21 08:43:26;;;;;;;;;;;27.80;40.30;;;;;;5115856;28;1012;-34
2022/05/21 08:46:01;;;;;;;;;;;27.80;39.60;;;;;;5114648;28;948;-35
2022/05/21 08:48:29;;;;;;;;;;;27.80;39.40;;;;;;5111426;28;1032;-34
2022/05/21 08:50:56;;;;;;;;;;;27.80;39.70;;;;;;5113435;28;1264;-35
2022/05/21 08:53:25;;;;;;;;;;;27.70;39.60;;;;;;5116007;28;1976;-35
2022/05/21 08:55:58;;;;;;;;;;;27.80;39.00;;;;;;5115870;28;1423;-34
2022/05/21 08:58:28;;;;;;;;;;;27.80;39.50;;;;;;5114816;28;1481;-35
2022/05/21 09:00:55;;;;;;;;;;;27.80;39.70;;;;;;5115800;28;1000;-34
2022/05/21 09:03:23;;;;;;;;;;;27.80;39.50;;;;;;5115209;28;1045;-35
2022/05/21 09:05:59;;;;;;;;;;;27.80;39.60;;;;;;5116395;28;1092;-34
2022/05/21 09:08:30;;;;;;;;;;;27.80;39.80;;;;;;5116065;28;1014;-35
2022/05/21 09:11:01;;;;;;;;;;;27.80;39.80;;;;;;5115072;28;954;-35
2022/05/21 09:13:33;;;;;;;;;;;27.80;39.40;;;;;;5114995;28;1957;-34
2022/05/21 09:18:46;;;;;;;;;;;27.80;39.30;;;;;;5116310;28;1053;-36
2022/05/21 09:21:16;;;;;;;;;;;27.90;37.70;;;;;;5115698;28;950;-45
2022/05/21 09:23:46;;;;;;;;;;;27.90;36.90;;;;;;5113979;28;1481;-47
2022/05/21 09:26:15;;;;;;;;;;;27.80;36.30;;;;;;5113968;28;999;-40
2022/05/21 09:28:42;;;;;;;;;;;27.80;35.80;;;;;;5114712;28;1628;-38
2022/05/21 09:31:10;;;;;;;;;;;27.70;35.60;;;;;;5113735;28;957;-38
2022/05/21 09:33:38;;;;;;;;;;;27.70;35.70;;;;;;5114713;28;1905;-39
2022/05/21 09:36:06;;;;;;;;;;;27.50;35.60;;;;;;5114284;28;892;-41
2022/05/21 09:38:33;;;;;;;;;;;27.50;35.90;;;;;;5115171;28;1009;-40
2022/05/21 09:41:11;;;;;;;;;;;27.30;35.50;;;;;;5114621;28;1466;-40
2022/05/21 09:46:26;;;;;;;;;;;27.30;35.60;;;;;;5114022;28;604;-41
2022/05/21 09:48:54;;;;;;;;;;;27.30;36.50;;;;;;5117088;28;913;-42
2022/05/21 09:51:26;;;;;;;;;;;27.20;37.20;;;;;;5117300;28;631;-42
2022/05/21 09:53:53;;;;;;;;;;;27.20;37.50;;;;;;5118470;28;1910;-42
2022/05/21 09:56:21;;;;;;;;;;;27.20;37.80;;;;;;5119126;28;1591;-41
2022/05/21 09:58:51;;;;;;;;;;;27.30;37.90;;;;;;5118296;28;1070;-44
2022/05/21 10:01:33;;;;;;;;;;;27.30;38.10;;;;;;5119166;28;1082;-42
2022/05/21 10:04:02;;;;;;;;;;;27.30;37.70;;;;;;5118357;28;1051;-43
2022/05/21 10:06:30;;;;;;;;;;;27.30;37.80;;;;;;5118711;28;991;-43
2022/05/21 10:11:45;;;;;;;;;;;27.40;37.70;;;;;;5087008;28;1189;-42
2022/05/21 10:14:17;;;;;;;;;;;27.40;37.70;;;;;;5117760;28;1997;-43
2022/05/21 10:16:46;;;;;;;;;;;27.50;37.30;;;;;;5118742;28;1043;-42
2022/05/21 10:19:16;;;;;;;;;;;27.50;37.40;;;;;;5118044;28;1023;-39
2022/05/21 10:21:49;;;;;;;;;;;27.50;37.50;;;;;;5118227;28;1047;-40
2022/05/21 10:24:20;;;;;;;;;;;27.50;37.10;;;;;;5117599;28;1633;-43
2022/05/21 10:26:52;;;;;;;;;;;27.50;37.70;;;;;;5118425;28;937;-44
2022/05/21 10:29:28;;;;;;;;;;;27.60;37.80;;;;;;5117870;28;1524;-41
2022/05/21 10:32:00;;;;;;;;;;;27.60;37.50;;;;;;5117263;28;1553;-42
2022/05/21 10:34:36;;;;;;;;;;;27.50;37.80;;;;;;5116286;28;2283;-41
2022/05/21 10:37:09;;;;;;;;;;;27.50;37.70;;;;;;5118063;28;1055;-41
2022/05/21 10:39:59;;;;;;;;;;;27.50;36.90;;;;;;5116901;28;992;-38
2022/05/21 10:42:36;;;;;;;;;;;27.60;38.10;;;;;;5097335;28;1315;-41
2022/05/21 10:45:10;;;;;;;;;;;27.60;34.30;;;;;;5118197;28;905;-42
2022/05/21 10:47:48;;;;;;;;;;;27.60;34.00;;;;;;5116205;27;925;-41
2022/05/21 10:50:24;;;;;;;;;;;27.50;33.70;;;;;;5113100;28;824;-41
2022/05/21 10:52:58;;;;;;;;;;;27.40;33.50;;;;;;5117037;28;964;-40
2022/05/21 10:55:28;;;;;;;;;;;27.20;32.90;;;;;;5118544;28;1960;-39
2022/05/21 10:58:13;;;;;;;;;;;27.10;33.30;;;;;;5116515;28;1024;-42
2022/05/21 11:00:44;;;;;;;;;;;27.00;33.70;;;;;;5116342;28;1244;-41
2022/05/21 11:03:21;;;;;;;;;;;26.90;33.60;;;;;;5117253;28;948;-41
2022/05/21 11:06:06;;;;;;;;;;;26.70;34.10;;;;;;5116911;28;2271;-40
2022/05/21 11:08:38;;;;;;;;;;;26.70;34.30;;;;;;5116876;28;1012;-42
2022/05/21 11:11:09;;;;;;;;;;;26.60;34.40;;;;;;5116496;28;942;-42
2022/05/21 11:13:38;;;;;;;;;;;26.60;34.10;;;;;;5115984;28;1905;-43
2022/05/21 11:16:12;;;;;;;;;;;26.40;34.00;;;;;;5117020;28;2105;-41
2022/05/21 11:18:43;;;;;;;;;;;26.40;34.20;;;;;;5116355;28;1031;-42
2022/05/21 11:21:14;;;;;;;;;;;26.40;34.40;;;;;;5116886;28;1370;-41
2022/05/21 11:23:47;;;;;;;;;;;26.40;34.50;;;;;;5115322;28;1501;-41
2022/05/21 11:26:24;;;;;;;;;;;26.30;34.70;;;;;;5116504;28;1015;-40
2022/05/21 11:28:54;;;;;;;;;;;26.40;34.40;;;;;;5116902;28;1019;-42
2022/05/21 11:39:42;;;;;;;;;;;26.20;34.30;;;;;;5116309;28;621;-38
2022/05/21 11:42:12;;;;;;;;;;;26.10;34.80;;;;;;5115120;28;1026;-41
2022/05/21 11:44:59;;;;;;;;;;;26.20;35.90;;;;;;5116852;28;1484;-42
2022/05/21 11:47:34;;;;;;;;;;;26.30;35.70;;;;;;5116583;28;1026;-45
2022/05/21 11:50:14;;;;;;;;;;;26.30;36.10;;;;;;5118470;28;984;-42
2022/05/21 11:52:59;;;;;;;;;;;26.40;36.10;;;;;;5116458;28;1107;-41
2022/05/21 11:55:28;;;;;;;;;;;26.40;36.20;;;;;;5116620;28;1906;-41
2022/05/21 11:57:56;;;;;;;;;;;26.40;36.40;;;;;;5117254;28;1035;-45
2022/05/21 12:00:42;;;;;;;;;;;26.40;36.50;;;;;;5117126;28;1438;-41
2022/05/21 12:03:15;;;;;;;;;;;26.60;36.30;;;;;;5117951;27;1059;-41
2022/05/21 12:05:56;;;;;;;;;;;26.60;36.20;;;;;;5117292;28;1189;-41
2022/05/21 12:08:39;;;;;;;;;;;26.60;35.90;;;;;;5117682;28;980;-41
2022/05/21 12:11:09;;;;;;;;;;;26.60;36.30;;;;;;5117680;28;948;-41
2022/05/21 12:14:00;;;;;;;;;;;26.60;36.60;;;;;;5116737;28;1901;-42
2022/05/21 12:16:47;;;;;;;;;;;26.70;36.30;;;;;;5116439;28;2386;-41
2022/05/21 12:19:29;;;;;;;;;;;26.70;36.20;;;;;;5115505;28;1005;-42
2022/05/21 12:22:03;;;;;;;;;;;26.70;36.10;;;;;;5113927;28;1190;-41
2022/05/21 12:24:35;;;;;;;;;;;26.70;36.40;;;;;;5115076;28;1000;-43
2022/05/21 12:27:03;;;;;;;;;;;26.80;36.20;;;;;;5115350;28;991;-41
2022/05/21 12:29:32;;;;;;;;;;;26.80;36.10;;;;;;5114859;28;988;-42
2022/05/21 12:32:00;;;;;;;;;;;26.80;36.20;;;;;;5114032;28;1173;-42
2022/05/21 12:34:42;;;;;;;;;;;26.80;35.60;;;;;;5113843;28;1913;-41
2022/05/21 12:37:13;;;;;;;;;;;26.90;35.60;;;;;;5115103;28;987;-42
2022/05/21 12:39:58;;;;;;;;;;;26.90;35.40;;;;;;5116946;28;999;-41
2022/05/21 12:42:28;;;;;;;;;;;26.90;35.60;;;;;;5117069;28;1585;-42
2022/05/21 12:44:55;;;;;;;;;;;26.90;35.50;;;;;;5117950;28;825;-44
2022/05/21 12:47:27;;;;;;;;;;;27.00;35.60;;;;;;5116576;28;1599;-42
2022/05/21 12:49:55;;;;;;;;;;;27.00;35.80;;;;;;5116539;28;1005;-42
2022/05/21 12:52:31;;;;;;;;;;;27.10;35.30;;;;;;5115482;28;1488;-41
2022/05/21 12:55:17;;;;;;;;;;;27.10;35.50;;;;;;5117936;28;1899;-43
2022/05/21 12:57:50;;;;;;;;;;;27.10;35.60;;;;;;5117027;28;1035;-42
2022/05/21 13:00:24;;;;;;;;;;;27.10;35.30;;;;;;5115016;28;1445;-41
2022/05/21 13:02:52;;;;;;;;;;;27.20;35.10;;;;;;5113897;28;1574;-41
2022/05/21 13:05:22;;;;;;;;;;;27.10;35.40;;;;;;5114498;28;1050;-39
2022/05/21 13:07:51;;;;;;;;;;;27.10;35.40;;;;;;5114973;28;999;-43
2022/05/21 13:10:22;;;;;;;;;;;27.10;35.60;;;;;;5116684;28;1023;-40
2022/05/21 13:12:51;;;;;;;;;;;27.00;35.40;;;;;;5115168;28;1495;-41
2022/05/21 13:15:21;;;;;;;;;;;27.10;35.50;;;;;;5115563;28;1977;-36
2022/05/21 13:17:56;;;;;;;;;;;27.20;35.60;;;;;;5114939;28;2207;-40
2022/05/21 13:20:27;;;;;;;;;;;27.20;35.60;;;;;;5115388;28;1426;-36
2022/05/21 13:23:12;;;;;;;;;;;27.10;35.70;;;;;;5117301;28;2026;-38
2022/05/21 13:25:39;;;;;;;;;;;27.20;35.80;;;;;;5118757;28;836;-37
2022/05/21 13:28:14;;;;;;;;;;;27.20;35.70;;;;;;5119039;28;948;-38
2022/05/21 13:30:47;;;;;;;;;;;27.20;35.70;;;;;;5118726;28;857;-36
2022/05/21 13:33:16;;;;;;;;;;;27.20;35.80;;;;;;5119392;28;1032;-35
2022/05/21 13:35:44;;;;;;;;;;;27.20;35.80;;;;;;5119214;28;1905;-38
2022/05/21 13:38:14;;;;;;;;;;;27.20;35.70;;;;;;5117377;28;1705;-38
2022/05/21 13:40:45;;;;;;;;;;;27.30;35.80;;;;;;5118696;28;841;-41
2022/05/21 13:43:13;;;;;;;;;;;27.30;35.90;;;;;;5118708;28;1016;-37
2022/05/21 13:45:51;;;;;;;;;;;27.30;35.60;;;;;;5118977;28;1615;-38
2022/05/21 13:48:20;;;;;;;;;;;27.30;35.90;;;;;;5120184;28;974;-38
2022/05/21 13:50:47;;;;;;;;;;;27.30;35.80;;;;;;5120008;28;2409;-36
2022/05/21 13:53:20;;;;;;;;;;;27.40;35.80;;;;;;5119404;28;1098;-35
2022/05/21 13:55:56;;;;;;;;;;;27.30;35.60;;;;;;5119109;28;1992;-38
2022/05/21 13:58:27;;;;;;;;;;;27.40;35.70;;;;;;5119327;28;1030;-38
2022/05/21 14:00:54;;;;;;;;;;;27.40;35.70;;;;;;5118847;27;924;-38
2022/05/21 14:03:26;;;;;;;;;;;27.40;35.60;;;;;;5116520;28;996;-35
2022/05/21 14:05:54;;;;;;;;;;;27.50;35.70;;;;;;5117514;28;1015;-38
2022/05/21 14:08:27;;;;;;;;;;;27.50;35.90;;;;;;5117918;28;976;-37
2022/05/21 14:10:59;;;;;;;;;;;27.60;35.90;;;;;;5115916;28;852;-39
2022/05/21 14:13:29;;;;;;;;;;;27.60;35.70;;;;;;5116217;28;1504;-37
2022/05/21 14:15:57;;;;;;;;;;;27.60;35.70;;;;;;5116084;28;1960;-38
2022/05/21 14:18:28;;;;;;;;;;;27.60;35.50;;;;;;5117127;28;1532;-38
2022/05/21 14:21:00;;;;;;;;;;;27.60;35.50;;;;;;5117153;28;944;-37
2022/05/21 14:23:31;;;;;;;;;;;27.60;35.40;;;;;;5117313;28;1790;-37
2022/05/21 14:26:11;;;;;;;;;;;27.60;35.40;;;;;;5116290;28;900;-37
2022/05/21 14:28:39;;;;;;;;;;;27.60;35.10;;;;;;5117780;28;965;-37
2022/05/21 14:31:37;;;;;;;;;;;27.60;35.30;;;;;;5118043;28;960;-37
2022/05/21 14:34:07;;;;;;;;;;;27.70;35.30;;;;;;5034180;28;1021;-37
2022/05/21 14:36:36;;;;;;;;;;;27.70;35.00;;;;;;5098744;28;1910;-35
2022/05/21 14:39:05;;;;;;;;;;;27.70;34.60;;;;;;5114757;28;1005;-37
2022/05/21 14:41:35;;;;;;;;;;;27.70;34.60;;;;;;5115803;28;1532;-38
2022/05/21 14:44:04;;;;;;;;;;;27.70;34.20;;;;;;5116551;28;1014;-38
2022/05/21 14:49:16;;;;;;;;;;;27.80;32.20;;;;;;5114922;28;922;-47
2022/05/21 14:54:33;;;;;;;;;;;27.80;31.20;;;;;;5114616;28;1913;-47
2022/05/21 14:57:00;;;;;;;;;;;27.80;30.70;;;;;;5114901;28;1031;-44
2022/05/21 14:59:27;;;;;;;;;;;27.80;30.20;;;;;;5115606;28;1189;-47
2022/05/21 15:01:55;;;;;;;;;;;27.70;30.40;;;;;;5115079;28;995;-45
2022/05/21 15:04:22;;;;;;;;;;;27.80;30.40;;;;;;5115051;28;984;-45
2022/05/21 15:06:50;;;;;;;;;;;27.70;30.20;;;;;;5115562;27;1027;-44
2022/05/21 15:09:18;;;;;;;;;;;27.70;29.90;;;;;;5114777;28;1063;-45
2022/05/21 15:11:47;;;;;;;;;;;27.60;30.00;;;;;;5114246;28;917;-45
2022/05/21 15:14:15;;;;;;;;;;;27.50;30.80;;;;;;5115586;28;1004;-47
2022/05/21 15:16:42;;;;;;;;;;;27.50;31.00;;;;;;5115969;28;1982;-47
2022/05/21 15:19:09;;;;;;;;;;;27.60;31.10;;;;;;5116015;28;1030;-46
2022/05/21 15:21:37;;;;;;;;;;;27.70;31.10;;;;;;5115550;28;1011;-45
2022/05/21 15:24:05;;;;;;;;;;;27.70;31.10;;;;;;5115204;28;999;-45
2022/05/21 15:26:33;;;;;;;;;;;27.60;30.80;;;;;;5115827;28;1620;-45
2022/05/21 15:29:03;;;;;;;;;;;27.50;30.70;;;;;;5115042;28;1028;-44